sensor_id;sensor_type;location;lat;lon;timestamp;P1;durP1;ratioP1;P2;durP2;ratioP2
56481;SDS011;42384;45.186;19.958;2022-09-09T00:03:59;17.33;;;9.10;;
56481;SDS011;42384;45.186;19.958;2022-09-09T00:06:42;15.52;;;9.00;;
56481;SDS011;42384;45.186;19.958;2022-09-09T00:09:13;16.08;;;9.07;;
56481;SDS011;42384;45.186;19.958;2022-09-09T00:14:13;11.77;;;7.50;;
56481;SDS011;42384;45.186;19.958;2022-09-09T00:16:41;13.05;;;6.95;;
56481;SDS011;42384;45.186;19.958;2022-09-09T00:19:23;12.80;;;5.57;;
56481;SDS011;42384;45.186;19.958;2022-09-09T00:26:55;15.60;;;6.60;;
56481;SDS011;42384;45.186;19.958;2022-09-09T00:29:32;12.55;;;5.63;;
56481;SDS011;42384;45.186;19.958;2022-09-09T00:32:05;14.27;;;5.88;;
56481;SDS011;42384;45.186;19.958;2022-09-09T00:34:35;15.20;;;6.07;;
56481;SDS011;42384;45.186;19.958;2022-09-09T00:37:02;10.38;;;5.97;;
56481;SDS011;42384;45.186;19.958;2022-09-09T00:39:34;13.15;;;6.68;;
56481;SDS011;42384;45.186;19.958;2022-09-09T00:49:46;14.50;;;6.45;;
56481;SDS011;42384;45.186;19.958;2022-09-09T00:52:30;14.63;;;6.25;;
56481;SDS011;42384;45.186;19.958;2022-09-09T00:57:35;13.80;;;6.38;;
56481;SDS011;42384;45.186;19.958;2022-09-09T01:02:52;14.15;;;5.95;;
56481;SDS011;42384;45.186;19.958;2022-09-09T01:07:45;17.98;;;6.65;;
56481;SDS011;42384;45.186;19.958;2022-09-09T01:12:58;14.82;;;7.13;;
56481;SDS011;42384;45.186;19.958;2022-09-09T01:15:27;12.02;;;5.72;;
56481;SDS011;42384;45.186;19.958;2022-09-09T01:21:19;11.55;;;6.30;;
56481;SDS011;42384;45.186;19.958;2022-09-09T01:28:16;14.98;;;6.95;;
56481;SDS011;42384;45.186;19.958;2022-09-09T01:30:43;12.93;;;7.32;;
56481;SDS011;42384;45.186;19.958;2022-09-09T01:33:10;11.07;;;5.85;;
56481;SDS011;42384;45.186;19.958;2022-09-09T01:35:55;12.02;;;6.40;;
56481;SDS011;42384;45.186;19.958;2022-09-09T01:38:23;13.93;;;6.93;;
56481;SDS011;42384;45.186;19.958;2022-09-09T01:40:50;16.33;;;7.32;;
56481;SDS011;42384;45.186;19.958;2022-09-09T01:43:18;15.80;;;7.20;;
56481;SDS011;42384;45.186;19.958;2022-09-09T01:45:45;18.95;;;7.32;;
56481;SDS011;42384;45.186;19.958;2022-09-09T01:48:13;12.73;;;7.10;;
56481;SDS011;42384;45.186;19.958;2022-09-09T01:50:40;16.05;;;7.20;;
56481;SDS011;42384;45.186;19.958;2022-09-09T01:53:06;14.52;;;7.82;;
56481;SDS011;42384;45.186;19.958;2022-09-09T01:55:33;16.95;;;7.47;;
56481;SDS011;42384;45.186;19.958;2022-09-09T02:00:29;13.63;;;7.28;;
56481;SDS011;42384;45.186;19.958;2022-09-09T02:03:00;14.68;;;7.78;;
56481;SDS011;42384;45.186;19.958;2022-09-09T02:05:38;16.48;;;7.88;;
56481;SDS011;42384;45.186;19.958;2022-09-09T02:10:42;15.93;;;7.55;;
56481;SDS011;42384;45.186;19.958;2022-09-09T02:13:12;18.30;;;7.93;;
56481;SDS011;42384;45.186;19.958;2022-09-09T02:16:00;22.20;;;7.53;;
56481;SDS011;42384;45.186;19.958;2022-09-09T02:18:35;15.82;;;7.38;;
56481;SDS011;42384;45.186;19.958;2022-09-09T02:21:04;16.52;;;7.70;;
56481;SDS011;42384;45.186;19.958;2022-09-09T02:25:57;17.92;;;7.88;;
56481;SDS011;42384;45.186;19.958;2022-09-09T02:28:25;15.30;;;7.30;;
56481;SDS011;42384;45.186;19.958;2022-09-09T02:30:52;14.70;;;8.65;;
56481;SDS011;42384;45.186;19.958;2022-09-09T02:33:22;15.25;;;7.25;;
56481;SDS011;42384;45.186;19.958;2022-09-09T02:35:51;12.32;;;7.63;;
56481;SDS011;42384;45.186;19.958;2022-09-09T02:38:17;14.10;;;7.07;;
56481;SDS011;42384;45.186;19.958;2022-09-09T02:40:45;16.08;;;7.03;;
56481;SDS011;42384;45.186;19.958;2022-09-09T02:43:11;17.73;;;7.72;;
56481;SDS011;42384;45.186;19.958;2022-09-09T02:45:52;12.55;;;6.95;;
56481;SDS011;42384;45.186;19.958;2022-09-09T02:48:28;16.33;;;7.13;;
56481;SDS011;42384;45.186;19.958;2022-09-09T02:53:36;12.93;;;7.03;;
56481;SDS011;42384;45.186;19.958;2022-09-09T02:56:09;12.98;;;7.35;;
56481;SDS011;42384;45.186;19.958;2022-09-09T02:58:39;13.13;;;7.18;;
56481;SDS011;42384;45.186;19.958;2022-09-09T03:01:05;16.20;;;7.22;;
56481;SDS011;42384;45.186;19.958;2022-09-09T03:03:33;13.50;;;6.70;;
56481;SDS011;42384;45.186;19.958;2022-09-09T03:06:00;12.52;;;7.20;;
56481;SDS011;42384;45.186;19.958;2022-09-09T03:08:27;13.52;;;7.25;;
56481;SDS011;42384;45.186;19.958;2022-09-09T03:10:57;14.95;;;7.40;;
56481;SDS011;42384;45.186;19.958;2022-09-09T03:13:24;13.10;;;6.93;;
56481;SDS011;42384;45.186;19.958;2022-09-09T03:15:50;12.77;;;6.85;;
56481;SDS011;42384;45.186;19.958;2022-09-09T03:18:16;16.45;;;6.57;;
56481;SDS011;42384;45.186;19.958;2022-09-09T03:20:43;16.52;;;7.82;;
56481;SDS011;42384;45.186;19.958;2022-09-09T03:23:09;16.17;;;6.82;;
56481;SDS011;42384;45.186;19.958;2022-09-09T03:25:35;19.13;;;7.80;;
56481;SDS011;42384;45.186;19.958;2022-09-09T03:28:01;15.20;;;6.65;;
56481;SDS011;42384;45.186;19.958;2022-09-09T03:30:28;17.25;;;7.13;;
56481;SDS011;42384;45.186;19.958;2022-09-09T03:32:54;20.15;;;7.20;;
56481;SDS011;42384;45.186;19.958;2022-09-09T03:35:20;13.75;;;7.10;;
56481;SDS011;42384;45.186;19.958;2022-09-09T03:37:47;17.25;;;6.82;;
56481;SDS011;42384;45.186;19.958;2022-09-09T03:40:13;11.18;;;6.32;;
56481;SDS011;42384;45.186;19.958;2022-09-09T03:42:39;15.98;;;7.38;;
56481;SDS011;42384;45.186;19.958;2022-09-09T03:45:07;13.48;;;7.10;;
56481;SDS011;42384;45.186;19.958;2022-09-09T03:47:34;11.95;;;6.78;;
56481;SDS011;42384;45.186;19.958;2022-09-09T03:50:00;13.95;;;6.25;;
56481;SDS011;42384;45.186;19.958;2022-09-09T03:52:27;13.05;;;7.05;;
56481;SDS011;42384;45.186;19.958;2022-09-09T03:54:54;16.27;;;6.97;;
56481;SDS011;42384;45.186;19.958;2022-09-09T03:57:21;8.00;;;5.70;;
56481;SDS011;42384;45.186;19.958;2022-09-09T03:59:48;15.57;;;6.95;;
56481;SDS011;42384;45.186;19.958;2022-09-09T04:02:14;12.82;;;6.95;;
56481;SDS011;42384;45.186;19.958;2022-09-09T04:04:40;13.38;;;6.32;;
56481;SDS011;42384;45.186;19.958;2022-09-09T04:07:06;20.67;;;7.10;;
56481;SDS011;42384;45.186;19.958;2022-09-09T04:09:33;13.15;;;7.00;;
56481;SDS011;42384;45.186;19.958;2022-09-09T04:12:00;14.88;;;7.22;;
56481;SDS011;42384;45.186;19.958;2022-09-09T04:14:26;21.58;;;7.00;;
56481;SDS011;42384;45.186;19.958;2022-09-09T04:16:54;10.50;;;6.75;;
56481;SDS011;42384;45.186;19.958;2022-09-09T04:19:22;16.60;;;7.43;;
56481;SDS011;42384;45.186;19.958;2022-09-09T04:21:48;15.55;;;7.55;;
56481;SDS011;42384;45.186;19.958;2022-09-09T04:24:16;12.55;;;7.75;;
56481;SDS011;42384;45.186;19.958;2022-09-09T04:26:42;19.90;;;7.35;;
56481;SDS011;42384;45.186;19.958;2022-09-09T04:29:10;15.27;;;7.07;;
56481;SDS011;42384;45.186;19.958;2022-09-09T04:31:36;14.45;;;7.85;;
56481;SDS011;42384;45.186;19.958;2022-09-09T04:34:08;15.32;;;7.78;;
56481;SDS011;42384;45.186;19.958;2022-09-09T04:36:34;14.88;;;8.43;;
56481;SDS011;42384;45.186;19.958;2022-09-09T04:39:01;18.70;;;8.55;;
56481;SDS011;42384;45.186;19.958;2022-09-09T04:41:27;15.30;;;8.48;;
56481;SDS011;42384;45.186;19.958;2022-09-09T04:43:54;16.35;;;8.95;;
56481;SDS011;42384;45.186;19.958;2022-09-09T04:46:20;17.10;;;8.52;;
56481;SDS011;42384;45.186;19.958;2022-09-09T04:48:48;16.40;;;7.80;;
56481;SDS011;42384;45.186;19.958;2022-09-09T04:51:14;12.75;;;8.13;;
56481;SDS011;42384;45.186;19.958;2022-09-09T04:53:41;15.35;;;7.97;;
56481;SDS011;42384;45.186;19.958;2022-09-09T04:56:08;15.70;;;8.57;;
56481;SDS011;42384;45.186;19.958;2022-09-09T04:58:35;20.25;;;8.52;;
56481;SDS011;42384;45.186;19.958;2022-09-09T05:01:05;17.15;;;8.85;;
56481;SDS011;42384;45.186;19.958;2022-09-09T05:03:32;15.05;;;8.70;;
56481;SDS011;42384;45.186;19.958;2022-09-09T05:08:24;16.45;;;8.20;;
56481;SDS011;42384;45.186;19.958;2022-09-09T05:10:51;14.20;;;8.57;;
56481;SDS011;42384;45.186;19.958;2022-09-09T05:13:17;17.63;;;8.93;;
56481;SDS011;42384;45.186;19.958;2022-09-09T05:15:50;17.52;;;8.27;;
56481;SDS011;42384;45.186;19.958;2022-09-09T05:18:17;15.48;;;8.77;;
56481;SDS011;42384;45.186;19.958;2022-09-09T05:20:43;12.07;;;8.45;;
56481;SDS011;42384;45.186;19.958;2022-09-09T05:23:09;14.02;;;8.48;;
56481;SDS011;42384;45.186;19.958;2022-09-09T05:25:37;16.15;;;8.18;;
56481;SDS011;42384;45.186;19.958;2022-09-09T05:28:03;16.45;;;8.50;;
56481;SDS011;42384;45.186;19.958;2022-09-09T05:30:30;18.35;;;8.32;;
56481;SDS011;42384;45.186;19.958;2022-09-09T05:32:56;18.08;;;8.57;;
56481;SDS011;42384;45.186;19.958;2022-09-09T05:35:23;14.40;;;8.60;;
56481;SDS011;42384;45.186;19.958;2022-09-09T05:37:49;15.55;;;8.02;;
56481;SDS011;42384;45.186;19.958;2022-09-09T05:40:15;14.38;;;8.88;;
56481;SDS011;42384;45.186;19.958;2022-09-09T05:42:41;20.52;;;9.13;;
56481;SDS011;42384;45.186;19.958;2022-09-09T05:45:08;16.08;;;8.45;;
56481;SDS011;42384;45.186;19.958;2022-09-09T05:47:35;19.25;;;8.40;;
56481;SDS011;42384;45.186;19.958;2022-09-09T05:50:02;16.40;;;8.35;;
56481;SDS011;42384;45.186;19.958;2022-09-09T05:54:55;15.70;;;7.47;;
56481;SDS011;42384;45.186;19.958;2022-09-09T05:57:22;20.88;;;8.20;;
56481;SDS011;42384;45.186;19.958;2022-09-09T05:59:48;15.93;;;7.55;;
56481;SDS011;42384;45.186;19.958;2022-09-09T06:02:15;10.52;;;7.65;;
56481;SDS011;42384;45.186;19.958;2022-09-09T06:04:41;18.08;;;8.65;;
56481;SDS011;42384;45.186;19.958;2022-09-09T06:07:07;15.70;;;8.18;;
56481;SDS011;42384;45.186;19.958;2022-09-09T06:09:34;16.90;;;8.07;;
56481;SDS011;42384;45.186;19.958;2022-09-09T06:12:00;15.05;;;8.18;;
56481;SDS011;42384;45.186;19.958;2022-09-09T06:14:26;19.23;;;9.63;;
56481;SDS011;42384;45.186;19.958;2022-09-09T06:16:52;18.08;;;9.27;;
56481;SDS011;42384;45.186;19.958;2022-09-09T06:19:18;11.73;;;8.43;;
56481;SDS011;42384;45.186;19.958;2022-09-09T06:21:45;15.88;;;9.02;;
56481;SDS011;42384;45.186;19.958;2022-09-09T06:24:13;15.77;;;8.25;;
56481;SDS011;42384;45.186;19.958;2022-09-09T06:26:42;14.68;;;8.55;;
56481;SDS011;42384;45.186;19.958;2022-09-09T06:29:08;12.05;;;7.55;;
56481;SDS011;42384;45.186;19.958;2022-09-09T06:34:02;11.77;;;8.02;;
56481;SDS011;42384;45.186;19.958;2022-09-09T06:36:31;14.82;;;9.27;;
56481;SDS011;42384;45.186;19.958;2022-09-09T06:38:57;13.07;;;9.23;;
56481;SDS011;42384;45.186;19.958;2022-09-09T06:41:26;15.60;;;8.38;;
56481;SDS011;42384;45.186;19.958;2022-09-09T06:43:52;12.95;;;8.10;;
56481;SDS011;42384;45.186;19.958;2022-09-09T06:46:21;13.82;;;8.18;;
56481;SDS011;42384;45.186;19.958;2022-09-09T06:48:48;13.98;;;9.18;;
56481;SDS011;42384;45.186;19.958;2022-09-09T06:51:16;14.07;;;8.77;;
56481;SDS011;42384;45.186;19.958;2022-09-09T06:53:43;12.77;;;7.97;;
56481;SDS011;42384;45.186;19.958;2022-09-09T06:58:36;12.85;;;10.13;;
56481;SDS011;42384;45.186;19.958;2022-09-09T07:01:03;12.82;;;10.77;;
56481;SDS011;42384;45.186;19.958;2022-09-09T07:03:30;13.90;;;10.63;;
56481;SDS011;42384;45.186;19.958;2022-09-09T07:05:56;20.27;;;10.35;;
56481;SDS011;42384;45.186;19.958;2022-09-09T07:08:23;13.48;;;9.95;;
56481;SDS011;42384;45.186;19.958;2022-09-09T07:10:50;15.13;;;9.68;;
56481;SDS011;42384;45.186;19.958;2022-09-09T07:13:25;14.15;;;9.32;;
56481;SDS011;42384;45.186;19.958;2022-09-09T07:15:52;19.75;;;10.02;;
56481;SDS011;42384;45.186;19.958;2022-09-09T07:18:19;13.68;;;9.05;;
56481;SDS011;42384;45.186;19.958;2022-09-09T07:20:54;18.58;;;9.82;;
56481;SDS011;42384;45.186;19.958;2022-09-09T07:23:23;14.48;;;8.68;;
56481;SDS011;42384;45.186;19.958;2022-09-09T07:25:49;21.98;;;9.63;;
56481;SDS011;42384;45.186;19.958;2022-09-09T07:28:17;14.13;;;9.35;;
56481;SDS011;42384;45.186;19.958;2022-09-09T07:30:43;13.07;;;7.88;;
56481;SDS011;42384;45.186;19.958;2022-09-09T07:33:09;11.32;;;8.63;;
56481;SDS011;42384;45.186;19.958;2022-09-09T07:35:35;11.85;;;8.63;;
56481;SDS011;42384;45.186;19.958;2022-09-09T07:38:02;13.95;;;9.20;;
56481;SDS011;42384;45.186;19.958;2022-09-09T07:40:32;13.82;;;9.57;;
56481;SDS011;42384;45.186;19.958;2022-09-09T07:42:59;13.05;;;9.40;;
56481;SDS011;42384;45.186;19.958;2022-09-09T07:47:54;14.48;;;9.20;;
56481;SDS011;42384;45.186;19.958;2022-09-09T07:50:22;16.10;;;8.80;;
56481;SDS011;42384;45.186;19.958;2022-09-09T07:52:49;11.45;;;8.93;;
56481;SDS011;42384;45.186;19.958;2022-09-09T07:55:15;11.50;;;9.50;;
56481;SDS011;42384;45.186;19.958;2022-09-09T07:57:41;14.77;;;8.77;;
56481;SDS011;42384;45.186;19.958;2022-09-09T08:00:07;13.88;;;9.32;;
56481;SDS011;42384;45.186;19.958;2022-09-09T08:02:35;14.05;;;9.15;;
56481;SDS011;42384;45.186;19.958;2022-09-09T08:05:02;14.10;;;9.20;;
56481;SDS011;42384;45.186;19.958;2022-09-09T08:09:54;11.30;;;8.48;;
56481;SDS011;42384;45.186;19.958;2022-09-09T08:14:47;14.68;;;9.15;;
56481;SDS011;42384;45.186;19.958;2022-09-09T08:17:14;16.17;;;8.38;;
56481;SDS011;42384;45.186;19.958;2022-09-09T08:19:40;13.07;;;8.73;;
56481;SDS011;42384;45.186;19.958;2022-09-09T08:22:06;18.63;;;8.65;;
56481;SDS011;42384;45.186;19.958;2022-09-09T08:24:33;18.48;;;8.85;;
56481;SDS011;42384;45.186;19.958;2022-09-09T08:27:00;12.32;;;8.05;;
56481;SDS011;42384;45.186;19.958;2022-09-09T08:29:26;14.35;;;9.38;;
56481;SDS011;42384;45.186;19.958;2022-09-09T08:31:54;12.90;;;9.13;;
56481;SDS011;42384;45.186;19.958;2022-09-09T08:34:22;13.45;;;9.23;;
56481;SDS011;42384;45.186;19.958;2022-09-09T08:36:50;13.65;;;8.90;;
56481;SDS011;42384;45.186;19.958;2022-09-09T08:39:18;15.38;;;9.40;;
56481;SDS011;42384;45.186;19.958;2022-09-09T08:46:59;16.23;;;8.85;;
56481;SDS011;42384;45.186;19.958;2022-09-09T08:49:39;14.13;;;8.27;;
56481;SDS011;42384;45.186;19.958;2022-09-09T08:52:18;11.27;;;8.23;;
56481;SDS011;42384;45.186;19.958;2022-09-09T08:54:45;16.88;;;9.35;;
56481;SDS011;42384;45.186;19.958;2022-09-09T08:57:17;14.65;;;9.10;;
56481;SDS011;42384;45.186;19.958;2022-09-09T08:59:45;22.05;;;8.80;;
56481;SDS011;42384;45.186;19.958;2022-09-09T09:10:18;13.63;;;8.85;;
56481;SDS011;42384;45.186;19.958;2022-09-09T09:12:46;11.68;;;7.72;;
56481;SDS011;42384;45.186;19.958;2022-09-09T09:15:16;14.88;;;8.85;;
56481;SDS011;42384;45.186;19.958;2022-09-09T09:17:43;10.75;;;7.43;;
56481;SDS011;42384;45.186;19.958;2022-09-09T09:20:16;16.60;;;7.28;;
56481;SDS011;42384;45.186;19.958;2022-09-09T09:22:48;14.95;;;7.20;;
56481;SDS011;42384;45.186;19.958;2022-09-09T09:28:07;25.95;;;8.25;;
56481;SDS011;42384;45.186;19.958;2022-09-09T09:31:10;14.23;;;7.43;;
56481;SDS011;42384;45.186;19.958;2022-09-09T09:35:54;13.77;;;6.88;;
56481;SDS011;42384;45.186;19.958;2022-09-09T09:38:22;39.60;;;30.70;;
56481;SDS011;42384;45.186;19.958;2022-09-09T09:40:55;23.70;;;12.85;;
56481;SDS011;42384;45.186;19.958;2022-09-09T09:43:29;13.65;;;6.35;;
56481;SDS011;42384;45.186;19.958;2022-09-09T09:45:55;8.27;;;5.25;;
56481;SDS011;42384;45.186;19.958;2022-09-09T09:48:25;10.73;;;5.45;;
56481;SDS011;42384;45.186;19.958;2022-09-09T09:50:52;11.10;;;6.57;;
56481;SDS011;42384;45.186;19.958;2022-09-09T09:53:32;15.07;;;6.15;;
56481;SDS011;42384;45.186;19.958;2022-09-09T09:58:32;14.18;;;6.57;;
56481;SDS011;42384;45.186;19.958;2022-09-09T10:00:59;10.40;;;6.57;;
56481;SDS011;42384;45.186;19.958;2022-09-09T10:03:27;12.38;;;6.22;;
56481;SDS011;42384;45.186;19.958;2022-09-09T10:05:54;9.52;;;5.75;;
56481;SDS011;42384;45.186;19.958;2022-09-09T10:08:22;12.43;;;5.75;;
56481;SDS011;42384;45.186;19.958;2022-09-09T10:13:58;11.25;;;5.60;;
56481;SDS011;42384;45.186;19.958;2022-09-09T10:18:59;11.73;;;5.53;;
56481;SDS011;42384;45.186;19.958;2022-09-09T10:21:29;9.80;;;5.13;;
56481;SDS011;42384;45.186;19.958;2022-09-09T10:28:54;11.68;;;5.55;;
56481;SDS011;42384;45.186;19.958;2022-09-09T10:31:31;15.35;;;6.13;;
56481;SDS011;42384;45.186;19.958;2022-09-09T10:36:24;23.20;;;6.43;;
56481;SDS011;42384;45.186;19.958;2022-09-09T10:38:58;15.10;;;5.35;;
56481;SDS011;42384;45.186;19.958;2022-09-09T10:46:41;22.00;;;6.85;;
56481;SDS011;42384;45.186;19.958;2022-09-09T10:49:18;14.40;;;6.07;;
56481;SDS011;42384;45.186;19.958;2022-09-09T10:57:53;20.23;;;6.05;;
56481;SDS011;42384;45.186;19.958;2022-09-09T10:59:58;15.70;;;5.95;;
56481;SDS011;42384;45.186;19.958;2022-09-09T11:02:26;16.63;;;7.00;;
56481;SDS011;42384;45.186;19.958;2022-09-09T11:07:26;34.30;;;7.07;;
56481;SDS011;42384;45.186;19.958;2022-09-09T11:09:54;19.13;;;6.30;;
56481;SDS011;42384;45.186;19.958;2022-09-09T11:12:22;19.90;;;6.45;;
56481;SDS011;42384;45.186;19.958;2022-09-09T11:14:53;11.90;;;5.72;;
56481;SDS011;42384;45.186;19.958;2022-09-09T11:17:24;27.40;;;6.28;;
56481;SDS011;42384;45.186;19.958;2022-09-09T11:19:52;28.42;;;6.75;;
56481;SDS011;42384;45.186;19.958;2022-09-09T11:27:42;13.48;;;5.47;;
56481;SDS011;42384;45.186;19.958;2022-09-09T11:30:17;18.25;;;6.30;;
56481;SDS011;42384;45.186;19.958;2022-09-09T11:38:25;10.77;;;5.85;;
56481;SDS011;42384;45.186;19.958;2022-09-09T11:41:10;17.80;;;6.00;;
56481;SDS011;42384;45.186;19.958;2022-09-09T11:46:10;16.08;;;6.45;;
56481;SDS011;42384;45.186;19.958;2022-09-09T11:48:39;14.70;;;6.32;;
56481;SDS011;42384;45.186;19.958;2022-09-09T11:53:47;12.00;;;5.82;;
56481;SDS011;42384;45.186;19.958;2022-09-09T11:56:23;17.52;;;6.97;;
56481;SDS011;42384;45.186;19.958;2022-09-09T11:58:55;16.42;;;6.53;;
56481;SDS011;42384;45.186;19.958;2022-09-09T12:01:42;10.57;;;5.82;;
56481;SDS011;42384;45.186;19.958;2022-09-09T12:06:45;11.90;;;5.82;;
56481;SDS011;42384;45.186;19.958;2022-09-09T12:09:17;10.00;;;5.68;;
56481;SDS011;42384;45.186;19.958;2022-09-09T12:11:44;9.30;;;5.65;;
56481;SDS011;42384;45.186;19.958;2022-09-09T12:14:34;12.18;;;5.97;;
56481;SDS011;42384;45.186;19.958;2022-09-09T12:19:42;9.60;;;5.13;;
56481;SDS011;42384;45.186;19.958;2022-09-09T12:22:17;11.65;;;6.07;;
56481;SDS011;42384;45.186;19.958;2022-09-09T12:24:54;35.17;;;7.32;;
56481;SDS011;42384;45.186;19.958;2022-09-09T12:30:22;79.25;;;39.88;;
56481;SDS011;42384;45.186;19.958;2022-09-09T12:32:41;27.95;;;7.68;;
56481;SDS011;42384;45.186;19.958;2022-09-09T12:40:03;10.77;;;6.80;;
56481;SDS011;42384;45.186;19.958;2022-09-09T12:42:30;24.20;;;6.93;;
56481;SDS011;42384;45.186;19.958;2022-09-09T12:44:59;25.95;;;6.90;;
56481;SDS011;42384;45.186;19.958;2022-09-09T12:47:26;20.10;;;5.97;;
56481;SDS011;42384;45.186;19.958;2022-09-09T12:49:55;21.85;;;7.85;;
56481;SDS011;42384;45.186;19.958;2022-09-09T12:52:23;23.27;;;6.85;;
56481;SDS011;42384;45.186;19.958;2022-09-09T12:54:51;24.10;;;6.53;;
56481;SDS011;42384;45.186;19.958;2022-09-09T12:57:19;15.20;;;7.18;;
56481;SDS011;42384;45.186;19.958;2022-09-09T12:59:46;12.95;;;6.32;;
56481;SDS011;42384;45.186;19.958;2022-09-09T13:02:22;13.18;;;5.78;;
56481;SDS011;42384;45.186;19.958;2022-09-09T13:04:49;12.55;;;6.70;;
56481;SDS011;42384;45.186;19.958;2022-09-09T13:07:16;16.70;;;6.97;;
56481;SDS011;42384;45.186;19.958;2022-09-09T13:09:43;17.60;;;7.05;;
56481;SDS011;42384;45.186;19.958;2022-09-09T13:12:13;22.05;;;6.85;;
56481;SDS011;42384;45.186;19.958;2022-09-09T13:14:42;20.08;;;7.93;;
56481;SDS011;42384;45.186;19.958;2022-09-09T13:17:17;18.10;;;7.10;;
56481;SDS011;42384;45.186;19.958;2022-09-09T13:19:44;14.32;;;6.70;;
56481;SDS011;42384;45.186;19.958;2022-09-09T13:22:12;11.43;;;7.30;;
56481;SDS011;42384;45.186;19.958;2022-09-09T13:24:38;18.45;;;6.93;;
56481;SDS011;42384;45.186;19.958;2022-09-09T13:27:19;14.02;;;6.47;;
56481;SDS011;42384;45.186;19.958;2022-09-09T13:29:52;12.60;;;6.88;;
56481;SDS011;42384;45.186;19.958;2022-09-09T13:32:20;11.98;;;7.10;;
56481;SDS011;42384;45.186;19.958;2022-09-09T13:34:50;11.65;;;6.82;;
56481;SDS011;42384;45.186;19.958;2022-09-09T13:37:26;9.90;;;6.20;;
56481;SDS011;42384;45.186;19.958;2022-09-09T13:39:53;9.10;;;6.65;;
56481;SDS011;42384;45.186;19.958;2022-09-09T13:42:29;13.27;;;5.93;;
56481;SDS011;42384;45.186;19.958;2022-09-09T13:44:56;11.73;;;6.43;;
56481;SDS011;42384;45.186;19.958;2022-09-09T13:47:30;8.63;;;6.10;;
56481;SDS011;42384;45.186;19.958;2022-09-09T13:49:57;15.27;;;6.32;;
56481;SDS011;42384;45.186;19.958;2022-09-09T13:52:30;9.52;;;6.22;;
56481;SDS011;42384;45.186;19.958;2022-09-09T13:54:57;10.13;;;6.30;;
56481;SDS011;42384;45.186;19.958;2022-09-09T13:57:24;11.27;;;6.13;;
56481;SDS011;42384;45.186;19.958;2022-09-09T13:59:52;13.10;;;6.60;;
56481;SDS011;42384;45.186;19.958;2022-09-09T14:02:19;13.07;;;6.32;;
56481;SDS011;42384;45.186;19.958;2022-09-09T14:04:48;11.68;;;6.85;;
56481;SDS011;42384;45.186;19.958;2022-09-09T14:07:16;12.68;;;6.80;;
56481;SDS011;42384;45.186;19.958;2022-09-09T14:09:43;12.20;;;6.53;;
56481;SDS011;42384;45.186;19.958;2022-09-09T14:12:10;11.70;;;6.20;;
56481;SDS011;42384;45.186;19.958;2022-09-09T14:14:37;11.80;;;6.47;;
56481;SDS011;42384;45.186;19.958;2022-09-09T14:17:04;13.50;;;6.32;;
56481;SDS011;42384;45.186;19.958;2022-09-09T14:21:59;37.05;;;27.63;;
56481;SDS011;42384;45.186;19.958;2022-09-09T14:24:26;16.65;;;9.90;;
56481;SDS011;42384;45.186;19.958;2022-09-09T14:26:53;12.13;;;5.95;;
56481;SDS011;42384;45.186;19.958;2022-09-09T14:29:19;12.02;;;6.32;;
56481;SDS011;42384;45.186;19.958;2022-09-09T14:31:45;53.95;;;39.30;;
56481;SDS011;42384;45.186;19.958;2022-09-09T14:34:12;63.85;;;45.95;;
56481;SDS011;42384;45.186;19.958;2022-09-09T14:36:39;18.67;;;7.40;;
56481;SDS011;42384;45.186;19.958;2022-09-09T14:39:06;11.98;;;6.18;;
56481;SDS011;42384;45.186;19.958;2022-09-09T14:41:32;34.38;;;6.60;;
56481;SDS011;42384;45.186;19.958;2022-09-09T14:43:58;28.98;;;14.13;;
56481;SDS011;42384;45.186;19.958;2022-09-09T14:46:25;31.27;;;17.33;;
56481;SDS011;42384;45.186;19.958;2022-09-09T14:48:51;19.13;;;7.90;;
56481;SDS011;42384;45.186;19.958;2022-09-09T14:51:19;40.83;;;25.45;;
56481;SDS011;42384;45.186;19.958;2022-09-09T14:53:47;36.35;;;21.30;;
56481;SDS011;42384;45.186;19.958;2022-09-09T14:56:14;26.00;;;15.43;;
56481;SDS011;42384;45.186;19.958;2022-09-09T14:58:41;25.27;;;12.52;;
56481;SDS011;42384;45.186;19.958;2022-09-09T15:01:09;22.52;;;13.52;;
56481;SDS011;42384;45.186;19.958;2022-09-09T15:03:36;21.92;;;11.73;;
56481;SDS011;42384;45.186;19.958;2022-09-09T15:06:09;13.27;;;8.68;;
56481;SDS011;42384;45.186;19.958;2022-09-09T15:08:36;9.52;;;6.85;;
56481;SDS011;42384;45.186;19.958;2022-09-09T15:11:03;11.40;;;7.20;;
56481;SDS011;42384;45.186;19.958;2022-09-09T15:13:29;16.92;;;7.22;;
56481;SDS011;42384;45.186;19.958;2022-09-09T15:16:00;14.82;;;7.07;;
56481;SDS011;42384;45.186;19.958;2022-09-09T15:18:28;16.50;;;7.90;;
56481;SDS011;42384;45.186;19.958;2022-09-09T15:20:54;15.32;;;8.20;;
56481;SDS011;42384;45.186;19.958;2022-09-09T15:23:21;14.27;;;7.68;;
56481;SDS011;42384;45.186;19.958;2022-09-09T15:25:53;14.93;;;8.20;;
56481;SDS011;42384;45.186;19.958;2022-09-09T15:28:20;15.77;;;6.97;;
56481;SDS011;42384;45.186;19.958;2022-09-09T15:30:47;13.95;;;8.00;;
56481;SDS011;42384;45.186;19.958;2022-09-09T15:33:13;12.55;;;6.53;;
56481;SDS011;42384;45.186;19.958;2022-09-09T15:35:40;15.30;;;7.20;;
56481;SDS011;42384;45.186;19.958;2022-09-09T15:38:06;12.27;;;6.68;;
56481;SDS011;42384;45.186;19.958;2022-09-09T15:40:32;16.17;;;6.53;;
56481;SDS011;42384;45.186;19.958;2022-09-09T15:42:58;16.50;;;7.88;;
56481;SDS011;42384;45.186;19.958;2022-09-09T15:47:51;14.23;;;8.00;;
56481;SDS011;42384;45.186;19.958;2022-09-09T15:52:44;12.48;;;8.38;;
56481;SDS011;42384;45.186;19.958;2022-09-09T15:55:11;15.75;;;7.47;;
56481;SDS011;42384;45.186;19.958;2022-09-09T15:57:37;13.45;;;7.03;;
56481;SDS011;42384;45.186;19.958;2022-09-09T16:00:03;15.68;;;7.65;;
56481;SDS011;42384;45.186;19.958;2022-09-09T16:02:31;13.93;;;7.63;;
56481;SDS011;42384;45.186;19.958;2022-09-09T16:04:58;10.07;;;6.95;;
56481;SDS011;42384;45.186;19.958;2022-09-09T16:07:26;16.02;;;8.13;;
56481;SDS011;42384;45.186;19.958;2022-09-09T16:09:52;11.40;;;7.75;;
56481;SDS011;42384;45.186;19.958;2022-09-09T16:12:19;12.20;;;7.90;;
56481;SDS011;42384;45.186;19.958;2022-09-09T16:14:46;146.68;;;109.70;;
56481;SDS011;42384;45.186;19.958;2022-09-09T16:17:12;222.10;;;152.88;;
56481;SDS011;42384;45.186;19.958;2022-09-09T16:19:40;181.27;;;143.15;;
56481;SDS011;42384;45.186;19.958;2022-09-09T16:22:06;83.03;;;64.25;;
56481;SDS011;42384;45.186;19.958;2022-09-09T16:24:33;18.70;;;14.30;;
56481;SDS011;42384;45.186;19.958;2022-09-09T16:26:59;23.70;;;12.82;;
56481;SDS011;42384;45.186;19.958;2022-09-09T16:29:25;17.63;;;11.52;;
56481;SDS011;42384;45.186;19.958;2022-09-09T16:34:19;16.45;;;8.98;;
56481;SDS011;42384;45.186;19.958;2022-09-09T16:36:45;21.15;;;9.27;;
56481;SDS011;42384;45.186;19.958;2022-09-09T16:39:13;17.42;;;8.60;;
56481;SDS011;42384;45.186;19.958;2022-09-09T16:41:41;13.75;;;7.95;;
56481;SDS011;42384;45.186;19.958;2022-09-09T16:44:10;11.73;;;8.48;;
56481;SDS011;42384;45.186;19.958;2022-09-09T16:46:40;14.60;;;8.48;;
56481;SDS011;42384;45.186;19.958;2022-09-09T16:49:10;13.40;;;8.65;;
56481;SDS011;42384;45.186;19.958;2022-09-09T16:51:38;15.00;;;8.82;;
56481;SDS011;42384;45.186;19.958;2022-09-09T16:54:05;16.33;;;8.35;;
56481;SDS011;42384;45.186;19.958;2022-09-09T16:56:32;12.65;;;8.05;;
56481;SDS011;42384;45.186;19.958;2022-09-09T16:59:00;18.08;;;8.70;;